createdAt,value
2024-05-09T00:00:43.770Z,98526.19
2024-05-09T00:05:45.511Z,98523.16
2024-05-09T00:10:47.037Z,98522.94
2024-05-09T00:15:48.453Z,98525.91
2024-05-09T00:20:49.879Z,98521.94
2024-05-09T00:25:51.271Z,98512.06
2024-05-09T00:30:52.649Z,98516.38
2024-05-09T00:35:53.953Z,98515.03
2024-05-09T00:40:55.276Z,98509.44
2024-05-09T00:45:57.392Z,98503.69
2024-05-09T00:50:58.862Z,98509.28
2024-05-09T00:56:00.297Z,98504.56
2024-05-09T01:01:01.770Z,98502.66
2024-05-09T01:06:03.310Z,98493.00
2024-05-09T01:11:04.779Z,98494.13
2024-05-09T01:16:06.194Z,98497.84
2024-05-09T01:21:09.469Z,98502.66
2024-05-09T01:26:10.918Z,98510.47
2024-05-09T01:31:15.835Z,98516.78
2024-05-09T01:36:17.252Z,98519.25
2024-05-09T01:41:18.631Z,98524.59
2024-05-09T01:46:20.002Z,98529.09
2024-05-09T01:51:21.357Z,98519.06
2024-05-09T01:56:22.692Z,98516.91
2024-05-09T02:01:24.178Z,98521.50
2024-05-09T02:06:25.545Z,98525.06
2024-05-09T02:11:27.061Z,98522.00
2024-05-09T02:16:28.493Z,98519.47
2024-05-09T02:21:34.086Z,98525.75
2024-05-09T02:26:35.496Z,98508.00
2024-05-09T02:31:36.850Z,98503.31
2024-05-09T02:36:38.210Z,98511.94
2024-05-09T02:41:39.604Z,98505.44
2024-05-09T02:46:40.972Z,98497.81
2024-05-09T02:51:42.306Z,98505.06
2024-05-09T02:56:43.635Z,98508.97
2024-05-09T03:01:46.070Z,98497.13
2024-05-09T03:06:47.522Z,98511.25
2024-05-09T03:11:48.990Z,98517.81
2024-05-09T03:16:50.465Z,98513.25
2024-05-09T03:21:51.919Z,98512.72
2024-05-09T03:26:53.227Z,98511.63
2024-05-09T03:31:54.732Z,98503.75
2024-05-09T03:36:56.094Z,98510.59
2024-05-09T03:41:57.484Z,98503.06
2024-05-09T03:46:59.020Z,98516.91
2024-05-09T03:52:05.049Z,98514.09
2024-05-09T03:57:06.456Z,98513.38
2024-05-09T04:02:07.917Z,98521.91
2024-05-09T04:07:09.260Z,98516.41
2024-05-09T04:12:10.772Z,98524.38
2024-05-09T04:17:12.291Z,98530.28
2024-05-09T04:22:13.728Z,98539.88
2024-05-09T04:27:15.045Z,98542.53
2024-05-09T04:32:16.534Z,98542.16
2024-05-09T04:37:17.956Z,98553.22
2024-05-09T04:42:19.265Z,98552.50
2024-05-09T04:47:20.722Z,98552.44
2024-05-09T04:52:22.110Z,98559.13
2024-05-09T04:57:23.482Z,98564.16
2024-05-09T05:02:24.897Z,98564.97
2024-05-09T05:07:26.293Z,98556.56
2024-05-09T05:12:46.531Z,98560.06
2024-05-09T05:17:48.038Z,98559.34
2024-05-09T05:22:49.486Z,98567.00
2024-05-09T05:27:50.810Z,98576.75
2024-05-09T05:32:52.246Z,98579.31
2024-05-09T05:37:53.750Z,98565.72
2024-05-09T05:42:55.105Z,98570.94
2024-05-09T05:47:56.661Z,98582.81
2024-05-09T05:52:58.203Z,98588.47
2024-05-09T05:58:00.593Z,98591.13
2024-05-09T06:03:02.093Z,98585.88
2024-05-09T06:08:03.668Z,98576.59
2024-05-09T06:13:05.049Z,98568.88
2024-05-09T06:18:06.494Z,98560.69
2024-05-09T06:23:08.116Z,98556.09
2024-05-09T06:28:09.654Z,98557.75
2024-05-09T06:33:12.987Z,98552.66
2024-05-09T06:38:16.388Z,98544.28
2024-05-09T06:43:19.398Z,98538.84
2024-05-09T06:48:22.318Z,98528.72
2024-05-09T06:53:24.355Z,98530.50
2024-05-09T06:58:25.786Z,98527.03
2024-05-09T07:03:27.271Z,98520.88
2024-05-09T07:08:28.739Z,98509.72
2024-05-09T07:13:30.169Z,98500.00
2024-05-09T07:18:31.863Z,98497.00
2024-05-09T07:23:33.277Z,98495.59
2024-05-09T07:28:34.621Z,98486.25
2024-05-09T07:33:36.024Z,98482.84
2024-05-09T07:38:37.583Z,98486.41
2024-05-09T07:43:39.044Z,98473.78
2024-05-09T07:53:48.073Z,98462.94
2024-05-09T07:58:55.589Z,98463.66
2024-05-09T08:03:57.414Z,98465.00
2024-05-09T08:09:02.773Z,98457.56
2024-05-09T08:14:06.674Z,98446.50
2024-05-09T08:19:08.022Z,98451.16
2024-05-09T08:24:10.476Z,98446.56
2024-05-09T08:29:11.833Z,98439.84
2024-05-09T08:34:13.444Z,98437.00
2024-05-09T08:39:14.837Z,98442.31
2024-05-09T08:44:16.150Z,98420.44
2024-05-09T08:49:17.649Z,98416.47
2024-05-09T08:54:21.239Z,98413.50
2024-05-09T08:59:22.572Z,98390.97
2024-05-09T09:04:24.131Z,98390.03
2024-05-09T09:09:25.551Z,98398.00
2024-05-09T09:14:26.881Z,98389.97
2024-05-09T09:19:28.337Z,98380.06
2024-05-09T09:24:29.776Z,98388.13
2024-05-09T09:29:31.175Z,98386.91
2024-05-09T09:34:33.283Z,98383.94
2024-05-09T09:39:34.706Z,98384.09
2024-05-09T09:44:39.531Z,98381.03
2024-05-09T09:49:43.474Z,98381.16
2024-05-09T09:54:44.986Z,98392.78
2024-05-09T09:59:46.432Z,98387.28
2024-05-09T10:04:47.932Z,98388.25
2024-05-09T10:09:49.442Z,98376.47
2024-05-09T10:14:50.846Z,98370.16
2024-05-09T10:19:52.293Z,98352.09
2024-05-09T10:24:53.734Z,98337.91
2024-05-09T10:29:55.205Z,98340.75
2024-05-09T10:34:56.686Z,98329.94
2024-05-09T10:39:58.439Z,98336.44
2024-05-09T10:44:59.821Z,98344.88
2024-05-09T10:50:01.299Z,98346.53
2024-05-09T10:55:05.481Z,98344.09
2024-05-09T11:00:12.762Z,98334.22
2024-05-09T11:05:17.534Z,98339.38
2024-05-09T11:10:27.250Z,98345.47
2024-05-09T11:15:33.246Z,98333.03
2024-05-09T11:20:35.523Z,98325.56
2024-05-09T11:25:37.035Z,98331.09
2024-05-09T11:30:38.373Z,98336.91
2024-05-09T11:35:39.734Z,98347.50
2024-05-09T11:40:41.328Z,98334.78
2024-05-09T11:45:42.811Z,98343.41
2024-05-09T11:50:44.219Z,98333.81
2024-05-09T11:55:45.625Z,98334.59
2024-05-09T12:00:47.373Z,98330.41
2024-05-09T12:05:49.011Z,98320.13
2024-05-09T12:10:50.605Z,98306.25
2024-05-09T12:15:52.031Z,98310.84
2024-05-09T12:20:54.008Z,98311.94
2024-05-09T12:25:55.331Z,98308.22
2024-05-09T12:30:56.685Z,98317.38
2024-05-09T12:35:58.010Z,98307.34
2024-05-09T12:40:59.478Z,98287.22
2024-05-09T12:46:01.325Z,98280.22
2024-05-09T12:51:02.786Z,98281.63
2024-05-09T12:56:05.458Z,98261.69
2024-05-09T13:01:07.483Z,98255.38
2024-05-09T13:06:08.893Z,98239.38
2024-05-09T13:11:10.358Z,98238.28
2024-05-09T13:16:11.770Z,98248.28
2024-05-09T13:21:13.205Z,98244.78
2024-05-09T13:26:14.511Z,98236.34
2024-05-09T13:31:16.002Z,98226.47
2024-05-09T13:36:17.406Z,98214.59
2024-05-09T13:41:18.807Z,98210.34
2024-05-09T13:46:20.372Z,98224.31
2024-05-09T13:51:21.831Z,98220.75
2024-05-09T13:56:23.143Z,98218.66
2024-05-09T14:01:24.528Z,98197.72
2024-05-09T14:06:25.857Z,98185.41
2024-05-09T14:11:27.200Z,98200.44
2024-05-09T14:16:28.649Z,98204.44
2024-05-09T14:21:30.135Z,98207.41
2024-05-09T14:26:31.502Z,98190.34
2024-05-09T14:31:34.839Z,98178.19
2024-05-09T14:36:36.916Z,98163.78
2024-05-09T14:41:39.144Z,98166.66
2024-05-09T14:46:40.465Z,98172.31
2024-05-09T14:51:42.006Z,98156.63
2024-05-09T14:56:43.469Z,98157.00
2024-05-09T15:01:44.962Z,98147.44
2024-05-09T15:06:48.456Z,98153.63
2024-05-09T15:11:49.868Z,98152.50
2024-05-09T15:16:51.807Z,98147.59
2024-05-09T15:21:53.202Z,98141.13
2024-05-09T15:26:54.581Z,98147.41
2024-05-09T15:31:56.174Z,98144.59
2024-05-09T15:37:00.383Z,98130.72
2024-05-09T15:42:04.563Z,98136.13
2024-05-09T15:47:06.044Z,98122.53
2024-05-09T15:52:07.500Z,98127.47
2024-05-09T15:57:08.909Z,98127.59
2024-05-09T16:02:11.560Z,98121.38
2024-05-09T16:07:13.427Z,98113.13
2024-05-09T16:12:14.844Z,98105.34
2024-05-09T16:17:16.371Z,98106.97
2024-05-09T16:22:17.823Z,98110.28
2024-05-09T16:27:19.281Z,98106.06
2024-05-09T16:32:20.658Z,98105.09
2024-05-09T16:37:22.010Z,98096.72
2024-05-09T16:42:23.342Z,98098.88
2024-05-09T16:47:24.728Z,98095.91
2024-05-09T16:52:26.250Z,98099.19
2024-05-09T16:57:27.633Z,98084.19
2024-05-09T17:02:30.398Z,98081.69
2024-05-09T17:07:31.938Z,98088.41
2024-05-09T17:12:33.352Z,98085.44
2024-05-09T17:17:34.899Z,98087.03
2024-05-09T17:22:36.459Z,98091.03
2024-05-09T17:27:37.918Z,98101.13
2024-05-09T17:32:39.450Z,98114.53
2024-05-09T17:37:40.839Z,98134.03
2024-05-09T17:42:42.177Z,98140.09
2024-05-09T17:47:43.660Z,98144.41
2024-05-09T17:52:45.115Z,98153.38
2024-05-09T17:57:46.495Z,98153.78
2024-05-09T18:02:48.293Z,98152.78
2024-05-09T18:07:49.725Z,98148.72
2024-05-09T18:12:51.081Z,98161.44
2024-05-09T18:17:52.786Z,98166.16
2024-05-09T18:22:54.143Z,98170.59
2024-05-09T18:27:55.491Z,98176.38
2024-05-09T18:32:56.874Z,98182.97
2024-05-09T18:37:58.246Z,98190.56
2024-05-09T18:42:59.583Z,98187.03
2024-05-09T18:48:01.108Z,98200.47
2024-05-09T18:53:02.771Z,98210.56
2024-05-09T18:58:04.400Z,98216.41
2024-05-09T19:03:08.087Z,98229.66
2024-05-09T19:08:10.296Z,98246.09
2024-05-09T19:13:13.533Z,98260.81
2024-05-09T19:18:17.146Z,98264.25
2024-05-09T19:23:18.685Z,98278.38
2024-05-09T19:28:20.123Z,98283.56
2024-05-09T19:33:21.636Z,98291.91
2024-05-09T19:38:23.075Z,98289.50
2024-05-09T19:43:24.554Z,98297.00
2024-05-09T19:48:26.076Z,98298.88
2024-05-09T19:53:27.463Z,98295.38
2024-05-09T19:58:28.893Z,98291.78
2024-05-09T20:03:32.156Z,98296.31
2024-05-09T20:08:33.676Z,98302.13
2024-05-09T20:13:35.051Z,98311.28
2024-05-09T20:18:36.646Z,98315.19
2024-05-09T20:23:38.074Z,98312.34
2024-05-09T20:28:39.548Z,98313.41
2024-05-09T20:33:41.088Z,98313.91
2024-05-09T20:38:42.536Z,98311.19
2024-05-09T20:43:43.844Z,98316.72
2024-05-09T20:48:45.308Z,98316.31
2024-05-09T20:53:46.741Z,98315.84
2024-05-09T20:58:48.063Z,98303.56
2024-05-09T21:03:49.545Z,98317.34
2024-05-09T21:08:51.022Z,98312.94
2024-05-09T21:13:52.394Z,98316.66
2024-05-09T21:18:53.718Z,98315.19
2024-05-09T21:23:55.060Z,98317.78
2024-05-09T21:28:56.390Z,98314.66
2024-05-09T21:33:57.820Z,98313.06
2024-05-09T21:38:59.240Z,98305.72
2024-05-09T21:44:00.546Z,98312.34
2024-05-09T21:49:01.903Z,98310.56
2024-05-09T21:54:03.281Z,98313.41
2024-05-09T21:59:04.657Z,98310.22
2024-05-09T22:04:06.205Z,98310.59
2024-05-09T22:09:07.638Z,98306.78
2024-05-09T22:14:09.011Z,98303.56
2024-05-09T22:19:10.471Z,98298.63
2024-05-09T22:24:11.865Z,98301.69
2024-05-09T22:29:13.338Z,98301.00
2024-05-09T22:34:14.954Z,98305.72
2024-05-09T22:39:17.652Z,98304.03
2024-05-09T22:44:19.031Z,98304.09
2024-05-09T22:49:20.538Z,98310.97
2024-05-09T22:54:21.911Z,98309.03
2024-05-09T22:59:23.221Z,98321.06
2024-05-09T23:04:24.654Z,98319.53
2024-05-09T23:09:26.021Z,98332.34
2024-05-09T23:14:27.328Z,98337.00
2024-05-09T23:19:28.822Z,98330.91
2024-05-09T23:24:30.211Z,98328.88
2024-05-09T23:29:31.560Z,98324.16
2024-05-09T23:34:32.882Z,98321.84
2024-05-09T23:39:34.304Z,98317.44
2024-05-09T23:44:35.666Z,98319.19
2024-05-09T23:49:37.030Z,98316.69
2024-05-09T23:54:38.463Z,98301.19
2024-05-09T23:59:39.794Z,98295.91
